createdAt,value
2023-03-11T00:00:55.314Z,1.70
2023-03-11T00:03:27.506Z,1.80
2023-03-11T00:05:54.814Z,2.13
2023-03-11T00:08:23.872Z,1.70
2023-03-11T00:10:56.285Z,1.40
2023-03-11T00:13:23.454Z,1.50
2023-03-11T00:15:55.757Z,1.50
2023-03-11T00:18:26.841Z,1.23
2023-03-11T00:20:54.856Z,1.63
2023-03-11T00:23:21.632Z,1.70
2023-03-11T00:25:48.307Z,1.63
2023-03-11T00:28:16.040Z,1.45
2023-03-11T00:30:45.233Z,1.67
2023-03-11T00:33:14.015Z,1.45
2023-03-11T00:35:41.682Z,1.10
2023-03-11T00:38:12.935Z,1.50
2023-03-11T00:40:40.120Z,1.10
2023-03-11T00:43:06.770Z,1.20
2023-03-11T00:45:33.868Z,1.30
2023-03-11T00:48:00.676Z,1.38
2023-03-11T00:50:30.475Z,1.20
2023-03-11T00:52:57.702Z,1.35
2023-03-11T00:55:27.838Z,1.30
2023-03-11T00:58:00.220Z,1.20
2023-03-11T01:00:28.821Z,1.35
2023-03-11T01:02:55.930Z,1.17
2023-03-11T01:05:25.442Z,1.20
2023-03-11T01:07:52.096Z,1.42
2023-03-11T01:10:19.209Z,1.27
2023-03-11T01:12:45.970Z,1.25
2023-03-11T01:15:26.260Z,1.40
2023-03-11T01:20:19.778Z,1.42
2023-03-11T01:22:46.500Z,1.40
2023-03-11T01:25:15.577Z,2.05
2023-03-11T01:27:43.213Z,1.27
2023-03-11T01:30:13.455Z,1.00
2023-03-11T01:32:40.151Z,1.20
2023-03-11T01:35:07.489Z,1.50
2023-03-11T01:37:34.115Z,0.90
2023-03-11T01:40:00.807Z,1.10
2023-03-11T01:42:27.425Z,1.40
2023-03-11T01:44:55.495Z,1.20
2023-03-11T01:47:39.933Z,1.00
2023-03-11T01:50:10.959Z,1.38
2023-03-11T01:52:38.210Z,1.00
2023-03-11T01:55:06.712Z,1.27
2023-03-11T01:57:33.462Z,1.20
2023-03-11T02:00:05.353Z,1.20
2023-03-11T02:02:34.636Z,1.00
2023-03-11T02:05:02.870Z,1.23
2023-03-11T02:07:29.979Z,1.15
2023-03-11T02:09:56.650Z,0.90
2023-03-11T02:12:23.407Z,0.90
2023-03-11T02:14:53.945Z,0.95
2023-03-11T02:17:22.104Z,1.08
2023-03-11T02:20:12.525Z,1.00
2023-03-11T02:22:42.721Z,1.27
2023-03-11T02:27:55.498Z,0.95
2023-03-11T02:30:23.917Z,0.90
2023-03-11T02:32:51.123Z,1.00
2023-03-11T02:35:18.286Z,1.13
2023-03-11T02:37:50.506Z,1.10
2023-03-11T02:40:22.970Z,1.10
2023-03-11T02:42:55.894Z,0.90
2023-03-11T02:45:25.488Z,1.00
2023-03-11T02:47:54.510Z,0.98
2023-03-11T02:50:21.768Z,1.48
2023-03-11T02:52:49.734Z,1.10
2023-03-11T02:55:18.057Z,2.67
2023-03-11T02:57:45.041Z,1.50
2023-03-11T03:00:16.538Z,1.58
2023-03-11T03:02:44.454Z,1.40
2023-03-11T03:05:12.201Z,1.45
2023-03-11T03:07:38.953Z,1.20
2023-03-11T03:10:06.675Z,0.90
2023-03-11T03:12:33.438Z,1.40
2023-03-11T03:15:00.081Z,1.35
2023-03-11T03:17:26.828Z,1.30
2023-03-11T03:19:53.528Z,1.15
2023-03-11T03:22:20.204Z,1.40
2023-03-11T03:24:46.949Z,1.20
2023-03-11T03:27:13.570Z,1.10
2023-03-11T03:29:40.180Z,1.00
2023-03-11T03:32:07.062Z,0.98
2023-03-11T03:34:34.007Z,1.33
2023-03-11T03:37:00.667Z,1.60
2023-03-11T03:39:29.383Z,1.17
2023-03-11T03:41:57.222Z,1.02
2023-03-11T03:44:24.065Z,1.10
2023-03-11T03:46:50.734Z,1.20
2023-03-11T03:49:17.499Z,1.17
2023-03-11T03:51:44.145Z,1.13
2023-03-11T03:54:10.804Z,1.40
2023-03-11T03:56:37.423Z,1.33
2023-03-11T03:59:04.072Z,1.20
2023-03-11T04:01:30.745Z,1.35
2023-03-11T04:03:57.535Z,1.63
2023-03-11T04:06:26.813Z,1.45
2023-03-11T04:08:54.231Z,1.43
2023-03-11T04:11:21.960Z,1.67
2023-03-11T04:13:48.781Z,1.58
2023-03-11T04:16:19.140Z,1.73
2023-03-11T04:18:46.510Z,1.58
2023-03-11T04:21:13.276Z,1.65
2023-03-11T04:23:39.947Z,2.08
2023-03-11T04:26:06.590Z,1.65
2023-03-11T04:28:33.319Z,1.45
2023-03-11T04:30:59.946Z,1.95
2023-03-11T04:33:26.668Z,1.73
2023-03-11T04:35:53.318Z,2.17
2023-03-11T04:38:19.961Z,2.28
2023-03-11T04:40:46.657Z,2.25
2023-03-11T04:43:13.319Z,2.20
2023-03-11T04:45:40.441Z,1.90
2023-03-11T04:48:07.193Z,2.10
2023-03-11T04:50:33.857Z,1.60
2023-03-11T04:53:00.597Z,1.50
2023-03-11T04:55:27.327Z,1.70
2023-03-11T04:57:53.957Z,1.48
2023-03-11T05:00:24.769Z,2.10
2023-03-11T05:02:51.787Z,2.58
2023-03-11T05:05:19.642Z,2.00
2023-03-11T05:07:46.851Z,2.08
2023-03-11T05:10:14.383Z,2.03
2023-03-11T05:12:41.412Z,1.80
2023-03-11T05:15:08.250Z,1.77
2023-03-11T05:17:34.860Z,1.65
2023-03-11T05:20:01.459Z,1.83
2023-03-11T05:22:28.069Z,1.70
2023-03-11T05:24:54.737Z,1.98
2023-03-11T05:27:21.439Z,1.75
2023-03-11T05:29:48.215Z,2.40
2023-03-11T05:32:15.297Z,2.70
2023-03-11T05:34:42.384Z,2.05
2023-03-11T05:37:09.055Z,1.90
2023-03-11T05:39:37.637Z,1.75
2023-03-11T05:42:05.217Z,1.65
2023-03-11T05:44:32.913Z,1.85
2023-03-11T05:47:00.322Z,1.60
2023-03-11T05:49:27.576Z,2.65
2023-03-11T05:51:55.291Z,1.63
2023-03-11T05:54:23.416Z,1.50
2023-03-11T05:56:50.108Z,1.95
2023-03-11T05:59:17.695Z,1.90
2023-03-11T06:01:45.166Z,1.48
2023-03-11T06:04:12.480Z,1.60
2023-03-11T06:06:41.393Z,1.50
2023-03-11T06:09:12.697Z,1.92
2023-03-11T06:11:39.328Z,1.40
2023-03-11T06:14:06.194Z,1.55
2023-03-11T06:16:32.951Z,1.80
2023-03-11T06:19:02.646Z,1.42
2023-03-11T06:21:29.279Z,1.70
2023-03-11T06:23:55.901Z,1.50
2023-03-11T06:26:23.597Z,2.20
2023-03-11T06:28:52.115Z,2.30
2023-03-11T06:31:26.998Z,1.60
2023-03-11T06:33:56.015Z,2.42
2023-03-11T06:36:23.601Z,4.25
2023-03-11T06:38:52.467Z,2.15
2023-03-11T06:41:19.065Z,2.10
2023-03-11T06:43:45.747Z,1.90
2023-03-11T06:46:16.811Z,1.77
2023-03-11T06:48:44.161Z,1.50
2023-03-11T06:51:11.171Z,1.83
2023-03-11T06:53:37.934Z,1.30
2023-03-11T06:56:10.220Z,1.58
2023-03-11T06:58:39.062Z,1.85
2023-03-11T07:01:15.142Z,1.88
2023-03-11T07:03:41.991Z,1.67
2023-03-11T07:06:17.068Z,1.67
2023-03-11T07:08:43.703Z,2.63
2023-03-11T07:11:15.865Z,2.78
2023-03-11T07:13:42.796Z,2.65
2023-03-11T07:16:15.655Z,2.35
2023-03-11T07:18:44.296Z,1.88
2023-03-11T07:21:14.544Z,2.60
2023-03-11T07:26:10.333Z,2.88
2023-03-11T07:28:37.378Z,2.75
2023-03-11T07:31:16.240Z,3.75
2023-03-11T07:33:44.027Z,3.88
2023-03-11T07:36:14.024Z,3.20
2023-03-11T07:38:41.907Z,4.13
2023-03-11T07:41:11.084Z,3.25
2023-03-11T07:43:38.859Z,6.53
2023-03-11T07:46:15.987Z,6.55
2023-03-11T07:48:42.788Z,3.15
2023-03-11T07:51:18.166Z,3.33
2023-03-11T07:53:45.074Z,3.28
2023-03-11T07:56:13.618Z,3.00
2023-03-11T07:58:40.973Z,2.47
2023-03-11T08:01:16.011Z,3.30
2023-03-11T08:03:44.257Z,2.67
2023-03-11T08:06:19.906Z,2.60
2023-03-11T08:08:47.196Z,3.00
2023-03-11T08:11:14.779Z,3.15
2023-03-11T08:13:42.447Z,3.22
2023-03-11T08:16:11.966Z,2.83
2023-03-11T08:18:38.589Z,2.70
2023-03-11T08:21:17.815Z,2.95
2023-03-11T08:23:47.557Z,3.17
2023-03-11T08:26:20.608Z,3.40
2023-03-11T08:28:48.020Z,3.65
2023-03-11T08:31:15.604Z,3.35
2023-03-11T08:33:44.365Z,3.90
2023-03-11T08:36:11.457Z,4.18
2023-03-11T08:38:38.452Z,3.05
2023-03-11T08:41:05.713Z,3.13
2023-03-11T08:43:32.367Z,2.72
2023-03-11T08:46:04.221Z,2.25
2023-03-11T08:48:30.888Z,2.28
2023-03-11T08:50:57.673Z,2.55
2023-03-11T08:53:25.525Z,2.88
2023-03-11T08:55:52.836Z,2.13
2023-03-11T08:58:20.256Z,3.17
2023-03-11T09:00:47.044Z,2.25
2023-03-11T09:03:14.020Z,1.42
2023-03-11T09:05:41.234Z,1.58
2023-03-11T09:08:08.233Z,2.03
2023-03-11T09:10:34.854Z,2.58
2023-03-11T09:13:01.608Z,4.85
2023-03-11T09:15:28.363Z,1.85
2023-03-11T09:17:55.805Z,1.85
2023-03-11T09:20:22.725Z,2.78
2023-03-11T09:22:49.570Z,1.45
2023-03-11T09:25:16.315Z,1.52
2023-03-11T09:27:42.917Z,1.58
2023-03-11T09:30:10.535Z,1.48
2023-03-11T09:32:37.412Z,1.58
2023-03-11T09:35:04.866Z,1.60
2023-03-11T09:37:31.477Z,1.50
2023-03-11T09:39:58.137Z,2.08
2023-03-11T09:42:35.912Z,1.70
2023-03-11T09:45:28.934Z,1.60
2023-03-11T09:48:07.413Z,1.23
2023-03-11T09:50:55.292Z,1.20
2023-03-11T09:53:40.621Z,1.10
2023-03-11T09:56:14.082Z,1.40
2023-03-11T09:58:50.939Z,1.60
2023-03-11T10:01:23.232Z,1.52
2023-03-11T10:03:53.155Z,1.20
2023-03-11T10:06:30.545Z,1.40
2023-03-11T10:09:12.176Z,1.70
2023-03-11T10:12:05.528Z,1.42
2023-03-11T10:15:06.255Z,1.40
2023-03-11T10:17:58.089Z,1.70
2023-03-11T10:20:32.101Z,1.30
2023-03-11T10:23:16.170Z,1.77
2023-03-11T10:26:00.408Z,1.48
2023-03-11T10:28:37.339Z,1.27
2023-03-11T10:31:33.426Z,1.50
2023-03-11T10:34:04.291Z,2.85
2023-03-11T10:36:48.553Z,3.60
2023-03-11T10:39:15.421Z,4.25
2023-03-11T10:41:52.197Z,1.80
2023-03-11T10:44:45.181Z,1.27
2023-03-11T10:47:24.277Z,1.55
2023-03-11T10:49:52.544Z,1.23
2023-03-11T10:52:19.601Z,1.15
2023-03-11T10:54:48.241Z,1.40
2023-03-11T10:57:36.341Z,0.93
2023-03-11T11:00:12.536Z,1.10
2023-03-11T11:02:51.586Z,1.50
2023-03-11T11:05:18.194Z,1.55
2023-03-11T11:07:46.299Z,1.35
2023-03-11T11:10:18.978Z,1.20
2023-03-11T11:13:04.043Z,1.40
2023-03-11T11:15:38.129Z,1.23
2023-03-11T11:18:18.010Z,1.35
2023-03-11T11:21:15.613Z,1.02
2023-03-11T11:23:43.400Z,1.67
2023-03-11T11:26:25.115Z,1.27
2023-03-11T11:29:27.609Z,1.38
2023-03-11T11:32:19.200Z,1.65
2023-03-11T11:35:03.719Z,1.05
2023-03-11T11:37:33.645Z,1.20
2023-03-11T11:40:32.716Z,1.10
2023-03-11T11:43:30.617Z,1.50
2023-03-11T11:46:02.074Z,1.13
2023-03-11T11:48:50.092Z,1.20
2023-03-11T11:51:21.811Z,1.20
2023-03-11T11:54:18.170Z,1.08
2023-03-11T11:56:45.951Z,1.02
2023-03-11T11:59:21.745Z,1.17
2023-03-11T12:02:02.647Z,1.25
2023-03-11T12:04:46.831Z,1.08
2023-03-11T12:07:35.485Z,1.30
2023-03-11T12:10:28.537Z,1.00
2023-03-11T12:13:18.581Z,1.17
2023-03-11T12:15:50.025Z,1.35
2023-03-11T12:18:32.315Z,1.17
2023-03-11T12:20:59.566Z,1.30
2023-03-11T12:23:49.631Z,1.20
2023-03-11T12:26:22.016Z,1.63
2023-03-11T12:29:06.840Z,1.33
2023-03-11T12:31:39.475Z,1.08
2023-03-11T12:34:14.439Z,1.27
2023-03-11T12:36:43.902Z,0.98
2023-03-11T12:39:24.854Z,1.23
2023-03-11T12:42:26.935Z,1.30
2023-03-11T12:44:53.902Z,1.85
2023-03-11T12:47:28.957Z,1.52
2023-03-11T12:50:16.891Z,1.73
2023-03-11T12:52:54.570Z,2.22
2023-03-11T12:55:29.876Z,1.30
2023-03-11T12:58:29.084Z,1.33
2023-03-11T13:01:49.275Z,1.30
2023-03-11T13:04:31.021Z,1.30
2023-03-11T13:07:27.928Z,1.35
2023-03-11T13:10:13.606Z,1.73
2023-03-11T13:12:43.735Z,1.75
2023-03-11T13:15:19.885Z,2.17
2023-03-11T13:18:03.159Z,1.30
2023-03-11T13:20:42.031Z,1.48
2023-03-11T13:23:10.296Z,1.73
2023-03-11T13:25:49.975Z,1.20
2023-03-11T13:28:44.531Z,1.50
2023-03-11T13:31:39.188Z,2.38
2023-03-11T13:34:29.510Z,2.03
2023-03-11T13:39:56.770Z,3.00
2023-03-11T13:42:48.093Z,1.40
2023-03-11T13:45:35.121Z,2.70
2023-03-11T13:48:07.700Z,1.95
2023-03-11T13:50:44.313Z,1.25
2023-03-11T13:53:35.758Z,1.92
2023-03-11T13:56:02.535Z,1.88
2023-03-11T13:58:29.385Z,1.58
2023-03-11T14:01:01.516Z,1.23
2023-03-11T14:03:40.489Z,1.70
2023-03-11T14:06:11.706Z,5.07
2023-03-11T14:08:39.579Z,1.42
2023-03-11T14:11:12.063Z,3.10
2023-03-11T14:13:44.071Z,3.20
2023-03-11T14:16:33.949Z,1.88
2023-03-11T14:19:18.021Z,1.48
2023-03-11T14:21:46.778Z,2.35
2023-03-11T14:24:29.135Z,2.05
2023-03-11T14:26:59.003Z,1.60
2023-03-11T14:29:34.512Z,2.22
2023-03-11T14:32:15.288Z,1.88
2023-03-11T14:34:41.975Z,1.63
2023-03-11T14:37:34.818Z,1.25
2023-03-11T14:40:01.847Z,1.60
2023-03-11T14:42:36.614Z,1.83
2023-03-11T14:45:06.139Z,1.30
2023-03-11T14:47:47.325Z,1.33
2023-03-11T14:50:18.643Z,1.67
2023-03-11T14:52:58.094Z,1.52
2023-03-11T14:55:36.377Z,1.20
2023-03-11T14:58:19.180Z,1.40
2023-03-11T15:01:01.997Z,0.85
2023-03-11T15:03:31.695Z,1.10
2023-03-11T15:06:19.785Z,1.00
2023-03-11T15:09:13.885Z,1.30
2023-03-11T15:11:55.474Z,1.20
2023-03-11T15:14:31.571Z,1.00
2023-03-11T15:17:37.792Z,1.27
2023-03-11T15:21:00.422Z,0.75
2023-03-11T15:23:27.088Z,1.05
2023-03-11T15:25:53.744Z,1.10
2023-03-11T15:28:27.093Z,1.20
2023-03-11T15:31:34.306Z,1.00
2023-03-11T15:34:19.061Z,1.50
2023-03-11T15:36:58.140Z,1.10
2023-03-11T15:39:30.312Z,1.67
2023-03-11T15:42:05.848Z,1.10
2023-03-11T15:44:50.997Z,1.50
2023-03-11T15:47:20.605Z,1.35
2023-03-11T15:49:47.978Z,1.40
2023-03-11T15:52:15.171Z,1.38
2023-03-11T15:54:44.196Z,1.45
2023-03-11T15:57:29.518Z,1.60
2023-03-11T15:59:58.612Z,2.00
2023-03-11T16:02:30.198Z,1.70
2023-03-11T16:04:57.859Z,1.80
2023-03-11T16:07:38.549Z,1.55
2023-03-11T16:10:07.303Z,1.83
2023-03-11T16:12:33.966Z,1.67
2023-03-11T16:15:00.695Z,1.70
2023-03-11T16:17:31.870Z,2.15
2023-03-11T16:20:06.795Z,1.80
2023-03-11T16:22:36.449Z,2.22
2023-03-11T16:25:04.062Z,1.60
2023-03-11T16:27:30.809Z,1.70
2023-03-11T16:29:57.484Z,1.77
2023-03-11T16:32:24.169Z,2.72
2023-03-11T16:34:50.931Z,1.70
2023-03-11T16:37:20.710Z,1.73
2023-03-11T16:39:48.489Z,1.58
2023-03-11T16:42:23.217Z,1.88
2023-03-11T16:44:50.237Z,1.42
2023-03-11T16:47:17.023Z,2.20
2023-03-11T16:49:43.679Z,1.98
2023-03-11T16:52:10.397Z,2.17
2023-03-11T16:54:37.135Z,2.10
2023-03-11T16:57:03.958Z,2.17
2023-03-11T16:59:30.590Z,2.00
2023-03-11T17:01:57.289Z,1.90
2023-03-11T17:04:23.941Z,2.20
2023-03-11T17:06:50.552Z,2.53
2023-03-11T17:09:17.187Z,2.08
2023-03-11T17:11:43.823Z,2.28
2023-03-11T17:14:16.516Z,2.72
2023-03-11T17:16:45.139Z,2.83
2023-03-11T17:19:11.934Z,3.10
2023-03-11T17:21:39.021Z,2.85
2023-03-11T17:24:07.188Z,6.22
2023-03-11T17:26:33.911Z,6.75
2023-03-11T17:29:00.662Z,3.90
2023-03-11T17:31:27.368Z,6.95
2023-03-11T17:33:54.040Z,7.90
2023-03-11T17:36:20.906Z,5.72
2023-03-11T17:38:48.090Z,4.53
2023-03-11T17:41:16.954Z,2.97
2023-03-11T17:43:44.447Z,2.35
2023-03-11T17:46:16.423Z,2.13
2023-03-11T17:48:45.298Z,2.08
2023-03-11T17:51:14.577Z,1.90
2023-03-11T17:53:45.540Z,2.13
2023-03-11T17:56:14.258Z,2.25
2023-03-11T17:58:41.446Z,1.90
2023-03-11T18:01:12.897Z,2.28
2023-03-11T18:03:39.549Z,2.25
2023-03-11T18:06:06.783Z,2.95
2023-03-11T18:08:35.156Z,3.30
2023-03-11T18:11:04.963Z,2.40
2023-03-11T18:13:32.361Z,2.95
2023-03-11T18:16:01.248Z,3.40
2023-03-11T18:18:28.976Z,3.85
2023-03-11T18:20:59.894Z,17.35
2023-03-11T18:23:26.490Z,9.02
2023-03-11T18:25:53.142Z,7.82
2023-03-11T18:28:19.824Z,3.50
2023-03-11T18:30:46.504Z,2.67
2023-03-11T18:33:13.240Z,2.60
2023-03-11T18:35:39.898Z,3.35
2023-03-11T18:38:06.619Z,4.60
2023-03-11T18:40:33.226Z,2.80
2023-03-11T18:42:59.838Z,2.60
2023-03-11T18:45:26.530Z,2.63
2023-03-11T18:47:53.141Z,2.53
2023-03-11T18:50:20.592Z,2.67
2023-03-11T18:52:49.738Z,2.80
2023-03-11T18:55:16.450Z,2.50
2023-03-11T18:57:43.304Z,2.30
2023-03-11T19:00:10.908Z,2.60
2023-03-11T19:02:37.522Z,2.45
2023-03-11T19:05:04.569Z,2.22
2023-03-11T19:07:31.258Z,2.10
2023-03-11T19:09:58.999Z,3.10
2023-03-11T19:12:29.138Z,2.10
2023-03-11T19:14:55.792Z,2.28
2023-03-11T19:17:22.386Z,2.10
2023-03-11T19:19:49.123Z,2.47
2023-03-11T19:22:15.728Z,2.25
2023-03-11T19:24:42.457Z,2.25
2023-03-11T19:27:09.133Z,2.10
2023-03-11T19:29:35.755Z,2.28
2023-03-11T19:32:03.652Z,2.50
2023-03-11T19:34:30.502Z,2.35
2023-03-11T19:36:58.550Z,3.10
2023-03-11T19:39:25.229Z,2.53
2023-03-11T19:41:51.867Z,2.22
2023-03-11T19:44:18.642Z,1.90
2023-03-11T19:46:45.392Z,2.10
2023-03-11T19:49:12.016Z,2.10
2023-03-11T19:51:49.659Z,2.20
2023-03-11T19:54:17.514Z,2.15
2023-03-11T19:56:44.370Z,2.30
2023-03-11T19:59:11.378Z,2.63
2023-03-11T20:01:38.142Z,2.78
2023-03-11T20:04:05.060Z,3.00
2023-03-11T20:06:31.884Z,3.05
2023-03-11T20:08:58.570Z,2.70
2023-03-11T20:11:25.227Z,2.65
2023-03-11T20:13:51.874Z,2.63
2023-03-11T20:16:19.461Z,2.50
2023-03-11T20:18:50.130Z,2.70
2023-03-11T20:21:17.185Z,2.25
2023-03-11T20:23:43.867Z,2.55
2023-03-11T20:26:13.856Z,2.67
2023-03-11T20:28:40.803Z,3.45
2023-03-11T20:31:19.909Z,4.60
2023-03-11T20:33:48.154Z,4.72
2023-03-11T20:36:20.899Z,4.03
2023-03-11T20:38:48.865Z,4.03
2023-03-11T20:41:15.610Z,5.15
2023-03-11T20:43:42.670Z,5.22
2023-03-11T20:46:10.272Z,4.88
2023-03-11T20:48:37.639Z,3.88
2023-03-11T20:51:07.803Z,3.70
2023-03-11T20:56:08.388Z,3.63
2023-03-11T20:58:35.619Z,3.10
2023-03-11T21:01:17.215Z,3.75
2023-03-11T21:03:44.874Z,3.42
2023-03-11T21:06:21.552Z,4.00
2023-03-11T21:08:48.910Z,4.50
2023-03-11T21:11:16.698Z,3.75
2023-03-11T21:13:43.387Z,3.55
2023-03-11T21:16:10.774Z,2.67
2023-03-11T21:18:37.512Z,3.50
2023-03-11T21:21:08.165Z,3.30
2023-03-11T21:23:35.822Z,3.65
2023-03-11T21:26:04.512Z,3.65
2023-03-11T21:28:31.790Z,3.13
2023-03-11T21:31:03.641Z,3.88
2023-03-11T21:33:31.245Z,3.40
2023-03-11T21:35:59.880Z,3.58
2023-03-11T21:38:27.719Z,2.60
2023-03-11T21:41:04.120Z,3.78
2023-03-11T21:43:30.719Z,3.17
2023-03-11T21:45:57.408Z,2.67
2023-03-11T21:48:24.372Z,2.80
2023-03-11T21:50:52.602Z,3.40
2023-03-11T21:53:19.436Z,2.63
2023-03-11T21:55:47.247Z,3.00
2023-03-11T21:58:14.912Z,3.08
2023-03-11T22:00:41.850Z,4.40
2023-03-11T22:03:08.637Z,3.10
2023-03-11T22:05:35.527Z,3.63
2023-03-11T22:08:02.363Z,2.85
2023-03-11T22:10:30.220Z,3.10
2023-03-11T22:12:56.966Z,2.65
2023-03-11T22:15:24.068Z,2.63
2023-03-11T22:17:50.822Z,2.80
2023-03-11T22:20:17.986Z,2.50
2023-03-11T22:22:44.643Z,3.40
2023-03-11T22:25:11.309Z,3.38
2023-03-11T22:27:39.849Z,3.97
2023-03-11T22:30:07.740Z,3.78
2023-03-11T22:32:34.747Z,3.55
2023-03-11T22:35:01.495Z,4.60
2023-03-11T22:37:28.269Z,4.88
2023-03-11T22:39:55.006Z,4.35
2023-03-11T22:42:21.699Z,4.63
2023-03-11T22:44:48.345Z,4.55
2023-03-11T22:47:15.053Z,6.60
2023-03-11T22:49:42.537Z,5.45
2023-03-11T22:52:09.184Z,6.45
2023-03-11T22:54:37.205Z,5.28
2023-03-11T22:57:03.956Z,3.30
2023-03-11T22:59:30.858Z,3.00
2023-03-11T23:01:57.832Z,2.25
2023-03-11T23:04:24.545Z,2.47
2023-03-11T23:06:54.327Z,2.08
2023-03-11T23:09:22.105Z,2.70
2023-03-11T23:11:52.735Z,2.03
2023-03-11T23:14:23.741Z,2.05
2023-03-11T23:16:54.788Z,2.25
2023-03-11T23:19:21.527Z,2.50
2023-03-11T23:21:48.321Z,3.15
2023-03-11T23:24:14.991Z,2.63
2023-03-11T23:26:41.583Z,2.53
2023-03-11T23:29:08.236Z,2.72
2023-03-11T23:31:36.327Z,2.88
2023-03-11T23:34:03.025Z,3.40
2023-03-11T23:36:31.229Z,3.13
2023-03-11T23:38:58.338Z,3.17
2023-03-11T23:41:25.194Z,3.10
2023-03-11T23:43:51.965Z,3.38
2023-03-11T23:46:18.801Z,3.10
2023-03-11T23:48:45.582Z,3.70
2023-03-11T23:51:12.230Z,2.70
2023-03-11T23:53:39.185Z,2.90
2023-03-11T23:56:13.958Z,2.75
2023-03-11T23:58:41.194Z,2.97
